Time;durP1;ratioP1;P1;durP2;ratioP2;P2;SDS_P1;SDS_P2;PMS_P1;PMS_P2;Temp;Humidity;BMP_temperature;BMP_pressure;BME280_temperature;BME280_humidity;BME280_pressure;Samples;Min_cycle;Max_cycle;Signal;HPM_P1;HPM_P2
2023/01/24 00:00:28;;;;;;;61.35;17.90;;;;;;;7.59;100.00;103070.75;5039072;28;20040;-77
2023/01/24 00:02:54;;;;;;;60.55;19.00;;;;;;;7.54;100.00;103064.84;5072028;28;20041;-77
2023/01/24 00:05:19;;;;;;;61.60;18.23;;;;;;;7.42;100.00;103043.25;5073108;28;20032;-78
2023/01/24 00:07:45;;;;;;;49.33;17.58;;;;;;;7.41;100.00;103052.25;5055468;28;20037;-77
2023/01/24 00:10:11;;;;;;;72.85;20.27;;;;;;;7.43;100.00;103054.81;5055198;28;20142;-77
2023/01/24 00:12:37;;;;;;;58.42;17.73;;;;;;;7.34;100.00;103042.91;5071917;28;20032;-77
2023/01/24 00:15:03;;;;;;;65.68;19.27;;;;;;;7.43;100.00;103050.31;5071660;28;20131;-77
2023/01/24 00:17:29;;;;;;;63.65;19.20;;;;;;;7.39;100.00;103047.97;5055079;28;20028;-77
2023/01/24 00:19:55;;;;;;;60.83;20.27;;;;;;;7.44;100.00;103056.56;5055482;28;20038;-78
2023/01/24 00:22:20;;;;;;;61.10;18.90;;;;;;;7.45;100.00;103056.44;5071600;28;20045;-77
2023/01/24 00:24:46;;;;;;;64.65;19.02;;;;;;;7.42;100.00;103053.97;5071934;28;20386;-76
2023/01/24 00:27:12;;;;;;;55.80;17.17;;;;;;;7.40;100.00;103047.84;5071729;28;20029;-77
2023/01/24 00:29:37;;;;;;;57.95;19.45;;;;;;;7.36;100.00;103037.47;5054757;28;20032;-77
2023/01/24 00:32:03;;;;;;;83.35;21.58;;;;;;;7.30;100.00;103035.16;5055363;28;20036;-77
2023/01/24 00:34:31;;;;;;;68.10;19.90;;;;;;;7.36;100.00;103051.69;5055138;28;20024;-76
2023/01/24 00:36:56;;;;;;;65.88;20.05;;;;;;;7.35;100.00;103052.63;5038857;28;20028;-76
2023/01/24 00:39:22;;;;;;;72.45;23.05;;;;;;;7.31;100.00;103055.63;5055268;28;20040;-77
2023/01/24 00:41:48;;;;;;;68.50;21.20;;;;;;;7.33;100.00;103053.69;5071672;28;20516;-77
2023/01/24 00:44:13;;;;;;;69.50;20.98;;;;;;;7.28;100.00;103051.34;5071427;28;20047;-77
2023/01/24 00:46:39;;;;;;;66.88;19.10;;;;;;;7.22;100.00;103046.34;5071432;28;20390;-77
2023/01/24 00:49:05;;;;;;;66.57;19.40;;;;;;;7.27;100.00;103061.16;5038422;28;20364;-76
2023/01/24 00:51:30;;;;;;;64.57;19.42;;;;;;;7.24;100.00;103057.81;5055465;28;20066;-76
2023/01/24 00:53:56;;;;;;;62.58;20.15;;;;;;;7.18;100.00;103053.72;5074855;28;20382;-76
2023/01/24 00:56:24;;;;;;;63.63;16.95;;;;;;;7.24;100.00;103055.16;5076072;28;20028;-76
2023/01/24 00:58:49;;;;;;;61.60;18.27;;;;;;;7.21;100.00;103055.34;5076196;28;20033;-76
2023/01/24 01:01:15;;;;;;;56.50;16.30;;;;;;;7.15;100.00;103048.56;5074754;28;20381;-75
2023/01/24 01:03:41;;;;;;;56.58;18.85;;;;;;;7.14;100.00;103052.19;5058618;28;20064;-76
2023/01/24 01:06:11;;;;;;;58.40;15.65;;;;;;;7.08;100.00;103049.06;5074932;28;20470;-75
2023/01/24 01:08:39;;;;;;;49.38;15.52;;;;;;;7.04;100.00;103059.97;5058564;28;20078;-75
2023/01/24 01:11:05;;;;;;;49.60;15.07;;;;;;;6.98;100.00;103052.28;5058021;28;20040;-76
2023/01/24 01:13:31;;;;;;;60.13;17.55;;;;;;;6.94;100.00;103057.97;5058389;28;20033;-75
2023/01/24 01:16:02;;;;;;;62.67;17.48;;;;;;;6.90;100.00;103059.94;5058140;28;20039;-76
2023/01/24 01:18:27;;;;;;;43.97;14.68;;;;;;;6.89;100.00;103060.91;5074723;28;20036;-75
2023/01/24 01:20:53;;;;;;;43.78;12.98;;;;;;;6.82;100.00;103063.09;5074596;28;20050;-75
2023/01/24 01:23:18;;;;;;;38.10;11.90;;;;;;;6.60;100.00;103039.50;5041530;28;20032;-75
2023/01/24 01:25:44;;;;;;;32.47;11.05;;;;;;;6.63;100.00;103064.31;5041906;28;20466;-75
2023/01/24 01:28:10;;;;;;;39.47;11.80;;;;;;;6.51;100.00;103052.56;5074502;28;20060;-78
2023/01/24 01:30:35;;;;;;;38.67;12.32;;;;;;;6.45;100.00;103059.13;5074464;28;20098;-75
2023/01/24 01:33:01;;;;;;;40.38;12.88;;;;;;;6.29;100.00;103061.84;5075345;28;20035;-76
2023/01/24 01:35:27;;;;;;;42.13;12.25;;;;;;;6.19;100.00;103057.16;5075492;28;20032;-76
2023/01/24 01:37:52;;;;;;;32.78;10.70;;;;;;;5.99;100.00;103045.84;5057447;28;20047;-76
2023/01/24 01:40:18;;;;;;;28.50;8.88;;;;;;;6.04;100.00;103061.59;5057273;28;20421;-75
2023/01/24 01:42:52;;;;;;;43.55;14.48;;;;;;;5.84;100.00;103039.53;5057271;28;20461;-75
2023/01/24 01:45:42;;;;;;;35.83;11.50;;;;;;;5.98;100.00;103065.50;5074319;28;20078;-75
2023/01/24 01:48:29;;;;;;;31.70;9.93;;;;;;;5.86;100.00;103047.47;5074278;28;20056;-75
2023/01/24 01:51:10;;;;;;;26.05;8.27;;;;;;;5.90;100.00;103065.91;5074999;28;20032;-75
2023/01/24 01:53:41;;;;;;;32.97;9.73;;;;;;;5.89;100.00;103074.00;5075235;28;20028;-76
2023/01/24 01:56:14;;;;;;;32.78;10.52;;;;;;;5.69;100.00;103046.66;5057141;28;20493;-76
2023/01/24 01:58:40;;;;;;;38.85;11.60;;;;;;;5.85;100.00;103084.00;5057665;28;20031;-76
2023/01/24 02:01:06;;;;;;;34.30;10.02;;;;;;;5.81;100.00;103079.78;5073804;28;20155;-76
2023/01/24 02:03:38;;;;;;;35.25;8.93;;;;;;;5.82;100.00;103089.53;5056189;28;20056;-76
2023/01/24 02:06:22;;;;;;;35.42;9.18;;;;;;;5.84;100.00;103092.09;5073735;28;20035;-76
2023/01/24 02:08:48;;;;;;;32.42;10.15;;;;;;;5.79;100.00;103086.16;5040617;28;20033;-76
2023/01/24 02:16:46;;;;;;;35.47;10.40;;;;;;;5.83;100.00;103095.72;5073843;28;20028;-76
2023/01/24 02:19:39;;;;;;;36.17;10.55;;;;;;;5.78;100.00;103087.97;5040513;28;20082;-76
2023/01/24 02:22:15;;;;;;;36.97;10.95;;;;;;;5.78;100.00;103085.28;5046185;28;20547;-76
2023/01/24 02:24:47;;;;;;;33.67;10.85;;;;;;;5.76;100.00;103092.53;5056879;28;20039;-76
2023/01/24 02:27:13;;;;;;;33.15;10.93;;;;;;;5.76;100.00;103089.00;5073423;28;20021;-76
2023/01/24 02:29:38;;;;;;;35.28;8.52;;;;;;;5.62;100.00;103065.75;5074186;28;20463;-77
2023/01/24 02:32:07;;;;;;;34.22;9.88;;;;;;;5.83;100.00;103101.06;5056342;28;20036;-76
2023/01/24 02:34:33;;;;;;;34.42;8.60;;;;;;;5.82;100.00;103108.22;5056603;28;20086;-77
2023/01/24 02:37:01;;;;;;;38.55;10.80;;;;;;;5.82;100.00;103101.97;5056502;28;20374;-76
2023/01/24 02:39:31;;;;;;;35.13;9.73;;;;;;;5.83;100.00;103106.41;5039906;28;20063;-76
2023/01/24 02:42:00;;;;;;;34.80;10.45;;;;;;;5.80;100.00;103102.09;5040018;28;20123;-76
2023/01/24 02:44:31;;;;;;;35.67;8.77;;;;;;;5.67;100.00;103077.03;5039929;28;20040;-76
2023/01/24 02:46:57;;;;;;;34.25;9.02;;;;;;;5.78;100.00;103095.13;5056146;28;20037;-76
2023/01/24 02:49:23;;;;;;;33.22;8.63;;;;;;;5.84;100.00;103098.28;5072881;28;20033;-76
2023/01/24 02:54:32;;;;;;;30.20;8.82;;;;;;;5.78;100.00;103087.09;5073217;28;20020;-76
2023/01/24 02:59:42;;;;;;;30.27;7.82;;;;;;;5.84;100.00;103105.44;5058924;28;20036;-76
2023/01/24 03:02:08;;;;;;;33.05;8.95;;;;;;;5.87;100.00;103099.91;5072740;28;20032;-76
2023/01/24 03:04:33;;;;;;;30.42;10.75;;;;;;;5.82;100.00;103085.97;5072667;28;20109;-76
2023/01/24 03:06:59;;;;;;;38.25;9.68;;;;;;;5.87;100.00;103095.44;5072330;28;20032;-75
2023/01/24 03:09:33;;;;;;;44.78;11.82;;;;;;;5.91;100.00;103104.16;5039514;28;20483;-78
2023/01/24 03:36:38;;;;;;;32.00;9.93;;;;;;;6.05;100.00;103133.63;5058246;28;20068;-76
2023/01/24 03:41:50;;;;;;;39.28;9.73;;;;;;;6.11;100.00;103135.94;5072417;28;20032;-76
2023/01/24 03:44:19;;;;;;;38.38;10.70;;;;;;;5.99;100.00;103107.28;5055798;28;20032;-76
2023/01/24 03:46:45;;;;;;;35.30;10.90;;;;;;;6.11;100.00;103133.28;5072310;28;20111;-76
2023/01/24 03:49:10;;;;;;;37.08;9.82;;;;;;;6.18;100.00;103148.94;5073236;28;20056;-76
2023/01/24 03:54:23;;;;;;;41.83;10.50;;;;;;;5.96;100.00;103110.13;5072425;28;20033;-76
2023/01/24 03:56:49;;;;;;;38.17;11.10;;;;;;;6.18;100.00;103141.78;5038825;28;20045;-76
2023/01/24 03:59:14;;;;;;;33.78;9.38;;;;;;;6.11;100.00;103122.59;5072254;28;20040;-76
2023/01/24 04:01:40;;;;;;;41.63;10.55;;;;;;;6.16;100.00;103133.84;5071805;28;20031;-76
2023/01/24 04:04:08;;;;;;;33.70;9.98;;;;;;;6.17;100.00;103137.41;5071848;28;20029;-76
2023/01/24 04:06:33;;;;;;;38.13;10.48;;;;;;;6.13;100.00;103130.50;5055269;28;20389;-75
2023/01/24 04:09:00;;;;;;;42.40;10.50;;;;;;;6.16;100.00;103139.19;5071950;28;20040;-76
2023/01/24 04:11:26;;;;;;;44.17;11.25;;;;;;;6.16;100.00;103139.19;5055335;28;20060;-77
2023/01/24 04:13:51;;;;;;;36.65;10.13;;;;;;;6.14;100.00;103143.78;5055313;28;20074;-76
2023/01/24 04:16:20;;;;;;;32.85;9.70;;;;;;;6.13;100.00;103142.03;5039775;28;20036;-76
2023/01/24 04:18:45;;;;;;;37.20;10.00;;;;;;;6.07;100.00;103129.06;5055279;28;20032;-76
2023/01/24 04:21:11;;;;;;;48.47;11.60;;;;;;;6.12;100.00;103137.66;5073104;28;20486;-76
2023/01/24 04:23:37;;;;;;;39.50;10.07;;;;;;;6.06;100.00;103137.13;5071916;28;20391;-76
2023/01/24 04:26:03;;;;;;;32.70;10.77;;;;;;;6.14;100.00;103142.94;5054983;28;20429;-77
2023/01/24 04:28:30;;;;;;;31.48;9.23;;;;;;;6.13;100.00;103158.06;5075575;28;20039;-76
2023/01/24 04:31:00;;;;;;;29.90;9.15;;;;;;;6.11;100.00;103151.97;5075505;28;20036;-76
2023/01/24 04:33:26;;;;;;;33.58;10.07;;;;;;;6.14;100.00;103159.81;5058857;28;20078;-76
2023/01/24 04:35:56;;;;;;;34.70;9.32;;;;;;;6.15;100.00;103156.19;5076405;28;20363;-76
2023/01/24 04:38:21;;;;;;;36.03;9.50;;;;;;;6.15;100.00;103156.19;5075574;28;20037;-76
2023/01/24 04:40:47;;;;;;;33.47;9.48;;;;;;;6.20;100.00;103163.09;5075021;28;20045;-77
2023/01/24 04:43:13;;;;;;;38.97;9.23;;;;;;;6.19;100.00;103159.53;5042395;28;20382;-76
2023/01/24 04:45:38;;;;;;;41.10;9.75;;;;;;;6.21;100.00;103157.63;5075462;28;20046;-76
2023/01/24 04:48:04;;;;;;;37.97;9.75;;;;;;;6.12;100.00;103140.34;5075212;28;20402;-76
2023/01/24 04:50:30;;;;;;;25.63;7.72;;;;;;;6.14;100.00;103143.78;5076329;28;20039;-76
2023/01/24 04:52:55;;;;;;;36.20;9.55;;;;;;;6.18;100.00;103159.63;5058494;28;20032;-77
2023/01/24 04:55:21;;;;;;;39.97;9.88;;;;;;;6.19;100.00;103156.84;5058331;28;20482;-76
2023/01/24 04:57:46;;;;;;;33.42;10.00;;;;;;;6.05;100.00;103133.63;5076144;28;20028;-77
2023/01/24 05:00:12;;;;;;;33.90;9.10;;;;;;;6.21;100.00;103159.44;5058451;28;20041;-76
2023/01/24 05:02:38;;;;;;;41.58;9.88;;;;;;;6.13;100.00;103149.19;5058513;28;20032;-76
2023/01/24 05:05:05;;;;;;;37.55;10.48;;;;;;;6.20;100.00;103157.75;5058511;28;20488;-76
2023/01/24 05:07:33;;;;;;;38.83;10.82;;;;;;;6.22;100.00;103158.50;5074938;28;20537;-77
2023/01/24 05:09:59;;;;;;;39.20;11.38;;;;;;;6.21;100.00;103159.44;5041647;28;20150;-76
2023/01/24 05:12:25;;;;;;;46.40;11.02;;;;;;;6.23;100.00;103160.22;5075958;28;20562;-76
2023/01/24 05:14:50;;;;;;;49.40;12.35;;;;;;;6.22;100.00;103166.50;5074771;28;20149;-76
2023/01/24 05:17:16;;;;;;;38.10;9.82;;;;;;;6.16;100.00;103149.88;5041826;28;20035;-77
2023/01/24 05:19:42;;;;;;;35.88;10.25;;;;;;;6.11;100.00;103145.75;5074300;28;20439;-76
2023/01/24 05:22:07;;;;;;;39.22;10.52;;;;;;;6.23;100.00;103158.41;5058063;28;20454;-76
2023/01/24 05:24:33;;;;;;;45.15;10.18;;;;;;;6.17;100.00;103153.44;5074397;28;20478;-76
2023/01/24 05:26:58;;;;;;;48.88;10.65;;;;;;;6.24;100.00;103161.94;5057722;28;20493;-77
2023/01/24 05:29:24;;;;;;;40.65;12.00;;;;;;;6.23;100.00;103163.75;5074442;28;20082;-76
2023/01/24 05:31:50;;;;;;;32.03;8.50;;;;;;;6.23;100.00;103165.56;5058015;28;20032;-77
2023/01/24 05:34:15;;;;;;;35.03;9.15;;;;;;;6.24;100.00;103164.63;5074149;28;20024;-76
2023/01/24 05:36:41;;;;;;;35.15;9.80;;;;;;;6.22;100.00;103158.50;5074506;28;20028;-76
2023/01/24 05:39:07;;;;;;;18.20;6.20;;;;;;;6.29;100.00;103165.22;5074097;28;20086;-80
2023/01/24 05:41:32;;;;;;;38.72;10.57;;;;;;;6.22;100.00;103158.50;5074429;28;20029;-76
2023/01/24 05:43:58;;;;;;;39.35;10.40;;;;;;;6.29;100.00;103173.22;5057397;28;20043;-75
2023/01/24 05:46:28;;;;;;;38.75;10.13;;;;;;;6.29;100.00;103170.56;5073986;28;20028;-76
2023/01/24 05:48:53;;;;;;;37.78;9.30;;;;;;;6.32;100.00;103173.91;5041465;28;20478;-75
2023/01/24 05:51:19;;;;;;;46.28;10.38;;;;;;;6.32;100.00;103173.91;5074010;28;20063;-78
2023/01/24 05:53:48;;;;;;;42.08;10.43;;;;;;;6.30;100.00;103172.28;5073778;28;20056;-78
2023/01/24 05:56:18;;;;;;;37.42;11.30;;;;;;;6.33;100.00;103172.09;5074363;28;20052;-77
2023/01/24 05:58:45;;;;;;;41.92;9.77;;;;;;;6.34;100.00;103171.16;5040901;28;20033;-77
2023/01/24 06:01:12;;;;;;;46.72;11.02;;;;;;;6.34;100.00;103165.81;5073777;28;20032;-77
2023/01/24 06:03:41;;;;;;;39.28;9.60;;;;;;;6.34;100.00;103169.34;5057322;28;20131;-78
2023/01/24 06:06:09;;;;;;;37.40;9.73;;;;;;;6.34;100.00;103161.31;5040802;28;20127;-77
2023/01/24 06:08:35;;;;;;;39.47;10.07;;;;;;;6.35;100.00;103164.84;5073475;28;20036;-77
2023/01/24 06:11:05;;;;;;;39.78;9.90;;;;;;;6.37;100.00;103166.47;5073550;28;20040;-77
2023/01/24 06:13:31;;;;;;;33.53;9.75;;;;;;;6.36;100.00;103163.91;5057224;28;20093;-78
2023/01/24 06:16:05;;;;;;;42.22;9.93;;;;;;;6.36;100.00;103163.91;5073616;28;20027;-77
2023/01/24 06:18:31;;;;;;;39.80;9.95;;;;;;;6.40;100.00;103168.09;5040537;28;20371;-78
2023/01/24 06:20:57;;;;;;;38.67;8.70;;;;;;;6.40;100.00;103160.09;5073309;28;20039;-77
2023/01/24 06:23:28;;;;;;;40.97;9.93;;;;;;;6.42;100.00;103163.53;5057136;28;20396;-78
2023/01/24 06:25:54;;;;;;;35.78;9.80;;;;;;;6.41;100.00;103161.84;5073366;28;20047;-77
2023/01/24 06:28:20;;;;;;;33.28;9.27;;;;;;;6.38;100.00;103151.31;5073241;28;20028;-77
2023/01/24 06:31:35;;;;;;;30.83;7.63;;;;;;;6.46;100.00;103157.09;5073109;28;20032;-78
2023/01/24 06:34:26;;;;;;;37.30;8.57;;;;;;;6.44;100.00;103144.75;5051150;28;20549;-78
2023/01/24 06:37:01;;;;;;;31.40;7.78;;;;;;;6.51;100.00;103154.13;5073331;28;20032;-77
2023/01/24 06:39:27;;;;;;;34.20;7.82;;;;;;;6.51;100.00;103154.13;5072715;28;20483;-78
2023/01/24 06:41:53;;;;;;;30.45;8.35;;;;;;;6.54;100.00;103159.31;5072623;28;20036;-78
2023/01/24 06:44:19;;;;;;;36.85;9.38;;;;;;;6.43;100.00;103135.88;5073769;28;20047;-77
2023/01/24 06:46:45;;;;;;;28.00;7.40;;;;;;;6.51;100.00;103149.66;5073841;28;20024;-77
2023/01/24 06:49:13;;;;;;;32.00;7.85;;;;;;;6.52;100.00;103155.84;5055220;28;20390;-78
2023/01/24 06:51:39;;;;;;;28.58;8.40;;;;;;;6.52;100.00;103148.69;5056648;28;20036;-77
2023/01/24 06:54:04;;;;;;;33.58;9.82;;;;;;;6.47;100.00;103142.75;5056292;28;20040;-77
2023/01/24 06:56:30;;;;;;;27.90;7.78;;;;;;;6.48;100.00;103149.81;5072601;28;20059;-75
2023/01/24 06:58:56;;;;;;;33.20;8.50;;;;;;;6.49;100.00;103148.88;5073836;28;20528;-75
2023/01/24 07:01:21;;;;;;;27.15;8.45;;;;;;;6.48;100.00;103149.81;5056120;28;20060;-75
2023/01/24 07:03:47;;;;;;;31.92;8.75;;;;;;;6.38;100.00;103122.78;5055699;28;20036;-75
2023/01/24 07:06:15;;;;;;;25.48;7.78;;;;;;;6.45;100.00;103133.97;5055743;28;20040;-76
2023/01/24 07:08:40;;;;;;;30.92;7.53;;;;;;;6.45;100.00;103130.44;5072751;28;20028;-80
2023/01/24 07:11:06;;;;;;;35.60;8.10;;;;;;;6.46;100.00;103138.38;5055957;28;20501;-80
2023/01/24 07:13:32;;;;;;;26.92;6.95;;;;;;;6.42;100.00;103139.50;5072718;28;20079;-80
2023/01/24 07:16:01;;;;;;;28.95;8.02;;;;;;;6.42;100.00;103142.16;5072830;28;20082;-80
2023/01/24 07:18:27;;;;;;;27.85;8.48;;;;;;;6.46;100.00;103140.19;5056240;28;20040;-81
2023/01/24 07:20:53;;;;;;;30.27;8.38;;;;;;;6.44;100.00;103140.28;5072658;28;20550;-81
2023/01/24 07:23:23;;;;;;;31.95;9.48;;;;;;;6.46;100.00;103137.53;5056060;28;20056;-80
2023/01/24 07:25:50;;;;;;;27.30;7.93;;;;;;;6.46;100.00;103132.19;5039496;28;20115;-81
2023/01/24 07:28:16;;;;;;;25.65;8.57;;;;;;;6.48;100.00;103136.44;5072316;28;20028;-80
2023/01/24 07:30:42;;;;;;;24.67;7.18;;;;;;;6.33;100.00;103111.50;5073672;28;20086;-80
2023/01/24 07:33:07;;;;;;;27.50;7.03;;;;;;;6.50;100.00;103139.91;5072566;28;20477;-80
2023/01/24 07:35:33;;;;;;;28.02;8.10;;;;;;;6.54;100.00;103145.94;5072422;28;20039;-80
2023/01/24 07:38:00;;;;;;;39.75;9.13;;;;;;;6.54;100.00;103143.28;5072710;28;20437;-80
2023/01/24 07:40:26;;;;;;;28.27;7.40;;;;;;;6.58;100.00;103142.13;5072498;28;20094;-80
2023/01/24 07:42:51;;;;;;;30.23;8.73;;;;;;;6.49;100.00;103132.84;5072093;28;20036;-80
2023/01/24 07:45:17;;;;;;;26.90;8.60;;;;;;;6.63;100.00;103149.88;5072452;28;20037;-81
2023/01/24 07:47:43;;;;;;;37.35;9.50;;;;;;;6.56;100.00;103136.00;5072383;28;20355;-80
2023/01/24 07:50:09;;;;;;;32.50;8.77;;;;;;;6.51;100.00;103130.06;5055583;28;20367;-80
2023/01/24 07:52:34;;;;;;;33.10;8.85;;;;;;;6.60;100.00;103150.91;5072276;28;20025;-80
2023/01/24 07:55:00;;;;;;;34.15;11.20;;;;;;;6.60;100.00;103158.94;5055729;28;20039;-80
2023/01/24 07:57:26;;;;;;;31.23;9.80;;;;;;;6.47;100.00;103137.41;5071958;28;20032;-80
2023/01/24 07:59:51;;;;;;;28.10;8.00;;;;;;;6.53;100.00;103150.41;5055248;28;20036;-80
2023/01/24 08:02:17;;;;;;;35.25;9.55;;;;;;;6.54;100.00;103152.16;5077004;28;20025;-80
2023/01/24 08:04:42;;;;;;;31.23;8.65;;;;;;;6.58;100.00;103152.81;5059652;28;20042;-81
2023/01/24 08:07:19;;;;;;;33.83;9.70;;;;;;;6.60;100.00;103158.94;5077393;28;20044;-80
2023/01/24 08:09:46;;;;;;;36.88;8.88;;;;;;;6.63;100.00;103155.22;5060920;28;20386;-81
2023/01/24 08:12:12;;;;;;;30.00;9.48;;;;;;;6.64;100.00;103156.94;5075814;28;20482;-80
2023/01/24 08:14:38;;;;;;;23.40;7.50;;;;;;;6.65;100.00;103150.66;5076188;28;20060;-81
2023/01/24 08:17:04;;;;;;;29.92;8.75;;;;;;;6.68;100.00;103154.00;5059563;28;20500;-81
2023/01/24 08:19:32;;;;;;;29.27;7.55;;;;;;;6.70;100.00;103162.78;5076853;28;20024;-80
2023/01/24 08:21:58;;;;;;;30.40;8.20;;;;;;;6.71;100.00;103163.63;5059370;28;20601;-81
2023/01/24 08:24:24;;;;;;;30.23;8.23;;;;;;;6.71;100.00;103174.34;5075752;28;20039;-80
2023/01/24 08:26:50;;;;;;;28.58;8.80;;;;;;;6.67;100.00;103159.41;5075852;28;20027;-81
2023/01/24 08:29:16;;;;;;;23.55;6.57;;;;;;;6.54;100.00;103146.78;5076564;28;20470;-80
2023/01/24 08:31:42;;;;;;;25.70;7.20;;;;;;;6.59;100.00;103163.44;5075214;28;20033;-81
2023/01/24 08:34:09;;;;;;;21.83;6.40;;;;;;;6.66;100.00;103171.06;5059184;28;20459;-81
2023/01/24 08:36:34;;;;;;;24.52;7.22;;;;;;;6.54;100.00;103146.78;5059037;28;20037;-81
2023/01/24 08:39:02;;;;;;;26.40;6.97;;;;;;;6.79;100.00;103185.44;5058945;28;20036;-80
2023/01/24 08:41:27;;;;;;;28.02;8.52;;;;;;;6.82;100.00;103186.09;5058747;28;20059;-80
2023/01/24 08:43:55;;;;;;;28.33;8.27;;;;;;;6.86;100.00;103192.16;5075289;28;20087;-81
2023/01/24 08:46:21;;;;;;;25.40;6.78;;;;;;;6.94;100.00;103197.88;5059143;28;20040;-80
2023/01/24 08:48:46;;;;;;;21.67;6.03;;;;;;;6.77;100.00;103163.25;5075343;28;20020;-81
2023/01/24 08:51:12;;;;;;;22.20;7.43;;;;;;;7.03;100.00;103205.34;5075216;28;20110;-81
2023/01/24 08:53:37;;;;;;;27.25;7.78;;;;;;;7.04;100.00;103191.03;5041854;28;20040;-81
2023/01/24 08:56:04;;;;;;;26.63;7.88;;;;;;;7.11;100.00;103187.97;5075244;28;20025;-81
2023/01/24 08:58:32;;;;;;;34.63;9.35;;;;;;;7.20;100.00;103203.50;5075263;28;20039;-80
2023/01/24 09:00:57;;;;;;;36.58;9.68;;;;;;;7.23;100.00;103203.28;5076379;28;20035;-80
2023/01/24 09:03:23;;;;;;;38.28;10.20;;;;;;;7.27;100.00;103204.81;5058539;28;20032;-82
2023/01/24 09:05:49;;;;;;;23.25;6.65;;;;;;;7.23;100.00;103190.78;5074781;28;20032;-81
2023/01/24 09:08:17;;;;;;;26.42;7.93;;;;;;;7.32;100.00;103213.41;5058489;28;20079;-81
2023/01/24 09:10:43;;;;;;;21.88;7.80;;;;;;;7.27;100.00;103199.47;5058299;28;20493;-81
2023/01/24 09:13:09;;;;;;;30.15;6.80;;;;;;;7.23;100.00;103192.59;5057860;28;20067;-81
2023/01/24 09:15:34;;;;;;;27.58;8.93;;;;;;;7.30;100.00;103209.13;5074952;28;20043;-81
2023/01/24 09:18:02;;;;;;;31.85;9.05;;;;;;;7.31;100.00;103205.50;5058241;28;20039;-81
2023/01/24 09:20:27;;;;;;;30.23;9.05;;;;;;;7.31;100.00;103205.50;5058461;28;20032;-82
2023/01/24 09:22:53;;;;;;;29.00;8.18;;;;;;;7.45;100.00;103221.56;5074849;28;20029;-80
2023/01/24 09:25:19;;;;;;;26.60;6.82;;;;;;;7.48;100.00;103229.41;5041664;28;20036;-80
2023/01/24 09:27:45;;;;;;;51.38;16.02;;;;;;;7.53;100.00;103231.78;5075610;28;20039;-81
2023/01/24 09:30:11;;;;;;;57.30;17.83;;;;;;;7.52;100.00;103228.25;5074623;28;20455;-82
2023/01/24 09:32:37;;;;;;;38.47;12.88;;;;;;;7.54;100.00;103226.34;5074620;28;20111;-82
2023/01/24 09:35:03;;;;;;;40.83;11.23;;;;;;;7.54;100.00;103215.66;5041518;28;20537;-81
2023/01/24 09:37:28;;;;;;;34.25;9.48;;;;;;;7.60;100.00;103227.78;5074549;28;20078;-81
2023/01/24 09:39:55;;;;;;;36.53;10.80;;;;;;;7.65;100.00;103217.66;5074077;28;20429;-81
2023/01/24 09:42:30;;;;;;;20.60;8.20;;;;;;;7.82;100.00;103232.66;5057579;28;20074;-81
2023/01/24 09:45:18;;;;;;;23.40;8.30;;;;;;;7.85;100.00;103230.63;5057810;28;20036;-82
2023/01/24 09:47:52;;;;;;;28.13;7.03;;;;;;;8.02;100.00;103234.03;5074365;28;20032;-82
2023/01/24 09:50:25;;;;;;;21.15;6.50;;;;;;;8.10;100.00;103231.75;5075431;28;20119;-82
2023/01/24 09:52:55;;;;;;;24.50;6.20;;;;;;;8.14;100.00;103236.78;5057758;28;20071;-82
2023/01/24 09:55:40;;;;;;;29.25;9.20;;;;;;;8.19;100.00;103232.97;5074366;28;20033;-82
2023/01/24 09:58:28;;;;;;;51.67;23.17;;;;;;;8.30;100.00;103236.66;5057267;28;20031;-82
2023/01/24 10:00:54;;;;;;;28.35;8.63;;;;;;;8.20;100.00;103197.16;5074185;28;20047;-82
2023/01/24 10:03:22;;;;;;;36.80;14.35;;;;;;;8.43;100.00;103222.50;5074144;28;20107;-82
2023/01/24 10:06:01;;;;;;;26.10;10.25;;;;;;;8.44;100.00;103225.09;5040936;28;20037;-81
2023/01/24 10:08:35;;;;;;;22.05;8.98;;;;;;;8.40;100.00;103212.81;5074070;28;20037;-81
2023/01/24 10:11:18;;;;;;;21.20;6.88;;;;;;;8.28;100.00;103190.34;5057117;28;20048;-82
2023/01/24 10:14:01;;;;;;;23.88;8.55;;;;;;;8.41;100.00;103202.97;5040835;28;20045;-81
2023/01/24 10:16:46;;;;;;;22.88;9.18;;;;;;;8.57;100.00;103222.41;5058657;28;20036;-86
2023/01/24 10:19:45;;;;;;;21.88;6.85;;;;;;;8.59;100.00;103220.50;5062654;28;20028;-86
2023/01/24 10:22:35;;;;;;;20.90;7.47;;;;;;;8.59;100.00;103223.19;5061680;28;20024;-87
2023/01/24 10:25:05;;;;;;;22.48;7.18;;;;;;;8.59;100.00;103226.72;5040437;28;20051;-86
2023/01/24 10:27:41;;;;;;;24.42;8.65;;;;;;;8.57;100.00;103223.31;5057475;28;20540;-86
2023/01/24 10:30:23;;;;;;;22.70;7.53;;;;;;;8.65;100.00;103236.19;5057287;28;20029;-86
2023/01/24 10:32:51;;;;;;;28.90;8.30;;;;;;;8.69;100.00;103236.84;5056736;28;20032;-86
2023/01/24 10:35:21;;;;;;;21.20;8.15;;;;;;;8.68;100.00;103236.00;5056602;28;20032;-86
2023/01/24 10:37:55;;;;;;;27.92;8.85;;;;;;;8.66;100.00;103227.19;5056443;28;20032;-86
2023/01/24 10:40:22;;;;;;;41.38;14.80;;;;;;;8.62;100.00;103222.97;5040818;28;20029;-86
2023/01/24 10:42:47;;;;;;;19.70;7.28;;;;;;;8.70;100.00;103209.91;5056961;28;20028;-86
2023/01/24 10:45:33;;;;;;;23.02;7.55;;;;;;;8.86;100.00;103230.34;5074374;28;20399;-86
2023/01/24 10:48:01;;;;;;;23.67;9.10;;;;;;;8.92;100.00;103220.06;5073172;28;20040;-87
2023/01/24 10:50:41;;;;;;;20.70;8.52;;;;;;;9.02;100.00;103225.63;5037705;28;20045;-87
2023/01/24 10:53:15;;;;;;;13.68;5.80;;;;;;;9.14;100.00;103226.63;5053822;28;20032;-87
2023/01/24 10:55:41;;;;;;;15.73;7.22;;;;;;;9.16;100.00;103204.09;5053152;28;20040;-87
2023/01/24 10:58:23;;;;;;;25.20;8.23;;;;;;;9.45;100.00;103239.63;5053248;28;20423;-87
2023/01/24 11:00:58;;;;;;;54.60;22.98;;;;;;;9.55;100.00;103234.50;5069714;28;20025;-87
2023/01/24 11:03:28;;;;;;;21.30;6.25;;;;;;;9.61;100.00;103212.56;5036612;28;20029;-87
2023/01/24 11:05:56;;;;;;;86.63;29.00;;;;;;;9.86;100.00;103218.84;5036238;28;20378;-87
2023/01/24 11:08:36;;;;;;;41.88;13.80;;;;;;;10.17;100.00;103220.16;5069674;28;20082;-85
2023/01/24 11:11:04;;;;;;;32.35;13.25;;;;;;;10.39;100.00;103218.59;5053041;28;20029;-85
2023/01/24 11:13:39;;;;;;;55.20;30.00;;;;;;;10.49;100.00;103204.34;5069255;28;20064;-86
2023/01/24 11:16:30;;;;;;;26.55;8.55;;;;;;;10.79;100.00;103228.06;5055087;28;20051;-86
2023/01/24 11:18:59;;;;;;;16.17;7.38;;;;;;;10.82;100.00;103210.81;5068544;28;20037;-86
2023/01/24 11:21:26;;;;;;;18.20;5.70;;;;;;;10.85;100.00;103215.13;5035092;28;20479;-86
2023/01/24 11:24:12;;;;;;;28.20;8.07;;;;;;;10.60;100.00;103191.94;5037025;28;20044;-86
2023/01/24 11:26:58;;;;;;;12.68;4.90;;;;;;;10.68;100.00;103208.34;5069061;28;20471;-86
2023/01/24 11:29:24;;;;;;;19.67;6.13;;;;;;;10.75;100.00;103212.28;5069470;28;20037;-86
2023/01/24 11:31:56;;;;;;;21.55;8.00;;;;;;;10.84;100.00;103208.88;5052135;28;20390;-85
2023/01/24 11:34:37;;;;;;;23.15;8.02;;;;;;;10.87;100.00;103181.72;5036005;28;20036;-87
2023/01/24 11:37:12;;;;;;;45.25;15.07;;;;;;;11.23;100.00;103204.09;5052228;28;20386;-87
2023/01/24 11:40:04;;;;;;;11.02;4.55;;;;;;;11.34;100.00;103201.41;5052215;28;20028;-87
2023/01/24 11:42:36;;;;;;;18.10;6.47;;;;;;;11.31;100.00;103207.03;5052264;28;20123;-87
2023/01/24 11:45:13;;;;;;;15.20;5.38;;;;;;;11.30;100.00;103204.44;5068255;28;20048;-87
2023/01/24 11:48:09;;;;;;;14.52;5.85;;;;;;;11.34;100.00;103206.78;5035848;28;20051;-85
2023/01/24 11:50:57;;;;;;;13.65;5.80;;;;;;;11.17;100.00;103200.03;5068576;28;20028;-88
2023/01/24 11:53:37;;;;;;;14.10;5.63;;;;;;;11.03;100.00;103196.69;5068346;28;20474;-88
2023/01/24 11:56:21;;;;;;;13.55;5.80;;;;;;;11.03;100.00;103199.38;5042444;28;20037;-87
2023/01/24 11:59:13;;;;;;;15.13;5.95;;;;;;;11.10;100.00;103189.88;5022872;28;20107;-87
2023/01/24 12:01:48;;;;;;;14.20;4.30;;;;;;;11.12;100.00;103190.59;5022241;28;20039;-87
2023/01/24 12:04:37;;;;;;;18.08;5.63;;;;;;;11.11;100.00;103186.19;5021989;28;20376;-87